sensor_id;sensor_type;location;lat;lon;timestamp;pressure;altitude;pressure_sealevel;temperature;humidity
65276;BME280;51875;49.994;14.052;2023-08-06T00:00:34;97487.06;;;16.57;100.00
65276;BME280;51875;49.994;14.052;2023-08-06T00:02:09;97488.63;;;16.60;100.00
65276;BME280;51875;49.994;14.052;2023-08-06T00:03:25;97488.09;;;16.55;100.00
65276;BME280;51875;49.994;14.052;2023-08-06T00:04:40;97488.63;;;16.60;100.00
65276;BME280;51875;49.994;14.052;2023-08-06T00:05:56;97487.97;;;16.43;100.00
65276;BME280;51875;49.994;14.052;2023-08-06T00:07:11;97483.41;;;16.45;100.00
65276;BME280;51875;49.994;14.052;2023-08-06T00:08:27;97476.44;;;16.31;100.00
65276;BME280;51875;49.994;14.052;2023-08-06T00:09:42;97475.06;;;16.26;100.00
65276;BME280;51875;49.994;14.052;2023-08-06T00:10:58;97474.31;;;16.23;100.00
65276;BME280;51875;49.994;14.052;2023-08-06T00:12:14;97471.25;;;16.17;100.00
65276;BME280;51875;49.994;14.052;2023-08-06T00:13:29;97468.94;;;16.38;100.00
65276;BME280;51875;49.994;14.052;2023-08-06T00:14:45;97472.72;;;16.34;100.00
65276;BME280;51875;49.994;14.052;2023-08-06T00:16:19;97467.78;;;16.42;100.00
65276;BME280;51875;49.994;14.052;2023-08-06T00:17:34;97469.91;;;16.37;100.00
65276;BME280;51875;49.994;14.052;2023-08-06T00:18:50;97465.56;;;16.36;100.00
65276;BME280;51875;49.994;14.052;2023-08-06T00:20:06;97466.63;;;16.33;100.00
65276;BME280;51875;49.994;14.052;2023-08-06T00:21:22;97460.81;;;16.41;100.00
65276;BME280;51875;49.994;14.052;2023-08-06T00:22:38;97454.28;;;16.47;100.00
65276;BME280;51875;49.994;14.052;2023-08-06T00:23:53;97459.97;;;16.54;100.00
65276;BME280;51875;49.994;14.052;2023-08-06T00:25:09;97457.03;;;16.58;100.00
65276;BME280;51875;49.994;14.052;2023-08-06T00:26:24;97452.78;;;16.56;100.00
65276;BME280;51875;49.994;14.052;2023-08-06T00:27:40;97460.38;;;16.47;100.00
65276;BME280;51875;49.994;14.052;2023-08-06T00:28:55;97458.91;;;16.43;100.00
65276;BME280;51875;49.994;14.052;2023-08-06T00:30:12;97452.16;;;16.39;100.00
65276;BME280;51875;49.994;14.052;2023-08-06T00:31:28;97450.78;;;16.33;100.00
65276;BME280;51875;49.994;14.052;2023-08-06T00:32:43;97447.09;;;16.36;100.00
65276;BME280;51875;49.994;14.052;2023-08-06T00:34:00;97448.97;;;16.34;100.00
65276;BME280;51875;49.994;14.052;2023-08-06T00:35:15;97446.31;;;16.34;100.00
65276;BME280;51875;49.994;14.052;2023-08-06T00:36:31;97443.59;;;16.35;100.00
65276;BME280;51875;49.994;14.052;2023-08-06T00:37:47;97446.44;;;16.32;100.00
65276;BME280;51875;49.994;14.052;2023-08-06T00:39:02;97446.31;;;16.34;100.00
65276;BME280;51875;49.994;14.052;2023-08-06T00:40:20;97443.25;;;16.27;100.00
65276;BME280;51875;49.994;14.052;2023-08-06T00:41:36;97435.00;;;16.19;100.00
65276;BME280;51875;49.994;14.052;2023-08-06T00:42:52;97440.28;;;16.32;100.00
65276;BME280;51875;49.994;14.052;2023-08-06T00:44:07;97430.16;;;16.26;100.00
65276;BME280;51875;49.994;14.052;2023-08-06T00:45:23;97426.91;;;16.35;100.00
65276;BME280;51875;49.994;14.052;2023-08-06T00:46:40;97420.03;;;16.45;100.00
65276;BME280;51875;49.994;14.052;2023-08-06T00:47:56;97415.16;;;16.39;100.00
65276;BME280;51875;49.994;14.052;2023-08-06T00:49:11;97412.09;;;16.32;100.00
65276;BME280;51875;49.994;14.052;2023-08-06T00:50:27;97404.06;;;16.47;100.00
65276;BME280;51875;49.994;14.052;2023-08-06T00:51:43;97405.31;;;16.54;100.00
65276;BME280;51875;49.994;14.052;2023-08-06T00:52:59;97393.41;;;16.48;100.00
65276;BME280;51875;49.994;14.052;2023-08-06T00:54:14;97400.56;;;16.46;100.00
65276;BME280;51875;49.994;14.052;2023-08-06T00:55:30;97401.19;;;16.24;100.00
65276;BME280;51875;49.994;14.052;2023-08-06T00:56:46;97401.50;;;16.19;100.00
65276;BME280;51875;49.994;14.052;2023-08-06T00:58:02;97402.72;;;16.28;100.00
65276;BME280;51875;49.994;14.052;2023-08-06T00:59:18;97410.06;;;16.23;100.00
65276;BME280;51875;49.994;14.052;2023-08-06T01:00:35;97409.44;;;16.19;100.00
65276;BME280;51875;49.994;14.052;2023-08-06T01:01:51;97401.63;;;16.31;100.00
65276;BME280;51875;49.994;14.052;2023-08-06T01:03:06;97406.06;;;16.17;100.00
65276;BME280;51875;49.994;14.052;2023-08-06T01:04:23;97404.56;;;16.26;100.00
65276;BME280;51875;49.994;14.052;2023-08-06T01:05:39;97399.94;;;16.17;100.00
65276;BME280;51875;49.994;14.052;2023-08-06T01:07:19;97402.88;;;16.25;100.00
65276;BME280;51875;49.994;14.052;2023-08-06T01:13:45;97395.59;;;16.29;100.00
65276;BME280;51875;49.994;14.052;2023-08-06T01:15:12;97391.63;;;16.36;100.00
65276;BME280;51875;49.994;14.052;2023-08-06T01:16:30;97394.13;;;16.24;100.00
65276;BME280;51875;49.994;14.052;2023-08-06T01:17:46;97387.38;;;16.46;100.00
65276;BME280;51875;49.994;14.052;2023-08-06T01:19:02;97387.28;;;16.35;100.00
65276;BME280;51875;49.994;14.052;2023-08-06T01:20:17;97388.75;;;16.39;100.00
65276;BME280;51875;49.994;14.052;2023-08-06T01:21:33;97382.44;;;16.42;100.00
65276;BME280;51875;49.994;14.052;2023-08-06T01:22:49;97390.41;;;16.27;100.00
65276;BME280;51875;49.994;14.052;2023-08-06T01:24:04;97389.81;;;16.49;100.00
65276;BME280;51875;49.994;14.052;2023-08-06T01:25:19;97394.13;;;16.37;100.00
65276;BME280;51875;49.994;14.052;2023-08-06T01:27:09;97388.09;;;16.35;100.00
65276;BME280;51875;49.994;14.052;2023-08-06T01:28:52;97391.72;;;16.34;100.00
65276;BME280;51875;49.994;14.052;2023-08-06T01:30:16;97396.53;;;16.02;100.00
65276;BME280;51875;49.994;14.052;2023-08-06T01:31:37;97397.09;;;16.07;100.00
65276;BME280;51875;49.994;14.052;2023-08-06T01:32:58;97397.94;;;15.80;100.00
65276;BME280;51875;49.994;14.052;2023-08-06T01:34:17;97398.56;;;16.11;100.00
65276;BME280;51875;49.994;14.052;2023-08-06T01:35:35;97396.94;;;15.95;100.00
65276;BME280;51875;49.994;14.052;2023-08-06T01:36:52;97401.91;;;15.73;100.00
65276;BME280;51875;49.994;14.052;2023-08-06T01:38:08;97398.38;;;15.87;100.00
65276;BME280;51875;49.994;14.052;2023-08-06T01:39:24;97406.66;;;15.67;100.00
65276;BME280;51875;49.994;14.052;2023-08-06T01:40:39;97399.13;;;15.61;100.00
65276;BME280;51875;49.994;14.052;2023-08-06T01:41:55;97401.47;;;15.66;100.00
65276;BME280;51875;49.994;14.052;2023-08-06T01:43:11;97398.81;;;15.53;100.00
65276;BME280;51875;49.994;14.052;2023-08-06T01:44:26;97403.03;;;15.56;100.00
65276;BME280;51875;49.994;14.052;2023-08-06T01:45:42;97402.94;;;15.57;100.00
65276;BME280;51875;49.994;14.052;2023-08-06T01:46:57;97407.47;;;15.55;100.00
65276;BME280;51875;49.994;14.052;2023-08-06T01:48:13;97411.03;;;15.81;100.00
65276;BME280;51875;49.994;14.052;2023-08-06T01:49:28;97417.53;;;15.76;100.00
65276;BME280;51875;49.994;14.052;2023-08-06T01:50:44;97411.88;;;15.82;100.00
65276;BME280;51875;49.994;14.052;2023-08-06T01:52:00;97418.00;;;15.82;100.00
65276;BME280;51875;49.994;14.052;2023-08-06T01:53:16;97415.97;;;15.73;100.00
65276;BME280;51875;49.994;14.052;2023-08-06T01:54:31;97416.84;;;15.87;100.00
65276;BME280;51875;49.994;14.052;2023-08-06T01:55:50;97411.31;;;16.04;100.00
65276;BME280;51875;49.994;14.052;2023-08-06T01:57:05;97406.88;;;15.92;100.00
65276;BME280;51875;49.994;14.052;2023-08-06T01:58:21;97409.22;;;16.09;100.00
65276;BME280;51875;49.994;14.052;2023-08-06T01:59:36;97400.16;;;16.27;100.00
65276;BME280;51875;49.994;14.052;2023-08-06T02:00:52;97401.63;;;16.31;100.00
65276;BME280;51875;49.994;14.052;2023-08-06T02:02:08;97397.59;;;16.25;100.00
65276;BME280;51875;49.994;14.052;2023-08-06T02:03:23;97395.50;;;16.30;100.00
65276;BME280;51875;49.994;14.052;2023-08-06T02:04:39;97402.22;;;15.95;100.00
65276;BME280;51875;49.994;14.052;2023-08-06T02:05:54;97393.19;;;16.26;100.00
65276;BME280;51875;49.994;14.052;2023-08-06T02:07:10;97394.66;;;16.17;100.00
65276;BME280;51875;49.994;14.052;2023-08-06T02:08:27;97395.56;;;16.03;100.00
65276;BME280;51875;49.994;14.052;2023-08-06T02:09:42;97395.91;;;16.11;100.00
65276;BME280;51875;49.994;14.052;2023-08-06T02:10:58;97391.38;;;16.13;100.00
65276;BME280;51875;49.994;14.052;2023-08-06T02:12:14;97399.13;;;15.89;100.00
65276;BME280;51875;49.994;14.052;2023-08-06T02:13:30;97396.22;;;16.06;100.00
65276;BME280;51875;49.994;14.052;2023-08-06T02:14:45;97402.53;;;16.04;100.00
65276;BME280;51875;49.994;14.052;2023-08-06T02:16:01;97387.25;;;16.22;100.00
65276;BME280;51875;49.994;14.052;2023-08-06T02:17:18;97387.56;;;16.17;100.00
65276;BME280;51875;49.994;14.052;2023-08-06T02:18:33;97396.56;;;16.15;100.00
65276;BME280;51875;49.994;14.052;2023-08-06T02:19:48;97397.00;;;16.21;100.00
65276;BME280;51875;49.994;14.052;2023-08-06T02:21:04;97389.91;;;16.22;100.00
65276;BME280;51875;49.994;14.052;2023-08-06T02:22:20;97393.31;;;16.37;100.00
65276;BME280;51875;49.994;14.052;2023-08-06T02:23:35;97388.53;;;16.29;100.00
65276;BME280;51875;49.994;14.052;2023-08-06T02:24:51;97392.97;;;16.16;100.00
65276;BME280;51875;49.994;14.052;2023-08-06T02:26:06;97394.09;;;16.12;100.00
65276;BME280;51875;49.994;14.052;2023-08-06T02:27:22;97391.38;;;16.00;100.00
65276;BME280;51875;49.994;14.052;2023-08-06T02:28:37;97394.97;;;16.12;100.00
65276;BME280;51875;49.994;14.052;2023-08-06T02:29:53;97382.41;;;16.16;100.00
65276;BME280;51875;49.994;14.052;2023-08-06T02:31:08;97386.63;;;16.18;100.00
65276;BME280;51875;49.994;14.052;2023-08-06T02:32:24;97382.41;;;16.16;100.00
65276;BME280;51875;49.994;14.052;2023-08-06T02:33:39;97385.78;;;16.31;100.00
65276;BME280;51875;49.994;14.052;2023-08-06T02:34:55;97385.34;;;16.24;100.00
65276;BME280;51875;49.994;14.052;2023-08-06T02:36:10;97385.38;;;16.37;100.00
65276;BME280;51875;49.994;14.052;2023-08-06T02:37:26;97381.34;;;16.44;100.00
65276;BME280;51875;49.994;14.052;2023-08-06T02:38:41;97382.44;;;16.42;100.00
65276;BME280;51875;49.994;14.052;2023-08-06T02:39:57;97373.66;;;16.28;100.00
65276;BME280;51875;49.994;14.052;2023-08-06T02:41:13;97373.13;;;16.36;100.00
65276;BME280;51875;49.994;14.052;2023-08-06T02:42:28;97371.19;;;16.12;100.00
65276;BME280;51875;49.994;14.052;2023-08-06T02:43:44;97371.50;;;16.07;100.00
65276;BME280;51875;49.994;14.052;2023-08-06T02:44:59;97366.88;;;16.11;100.00
65276;BME280;51875;49.994;14.052;2023-08-06T02:46:15;97365.81;;;16.27;100.00
65276;BME280;51875;49.994;14.052;2023-08-06T02:47:30;97357.56;;;16.05;100.00
65276;BME280;51875;49.994;14.052;2023-08-06T02:48:47;97358.91;;;15.98;100.00
65276;BME280;51875;49.994;14.052;2023-08-06T02:50:02;97353.66;;;16.11;100.00
65276;BME280;51875;49.994;14.052;2023-08-06T02:51:18;97354.28;;;16.02;100.00
65276;BME280;51875;49.994;14.052;2023-08-06T02:52:33;97358.09;;;16.10;100.00
65276;BME280;51875;49.994;14.052;2023-08-06T02:53:49;97352.47;;;15.89;100.00
65276;BME280;51875;49.994;14.052;2023-08-06T02:55:05;97353.41;;;15.88;100.00
65276;BME280;51875;49.994;14.052;2023-08-06T02:56:21;97345.78;;;15.84;100.00
65276;BME280;51875;49.994;14.052;2023-08-06T02:57:37;97349.44;;;16.08;100.00
65276;BME280;51875;49.994;14.052;2023-08-06T02:58:52;97356.34;;;15.84;100.00
65276;BME280;51875;49.994;14.052;2023-08-06T03:00:08;97346.59;;;15.99;100.00
65276;BME280;51875;49.994;14.052;2023-08-06T03:01:24;97351.56;;;16.03;100.00
65276;BME280;51875;49.994;14.052;2023-08-06T03:02:41;97351.91;;;15.84;100.00
65276;BME280;51875;49.994;14.052;2023-08-06T03:03:57;97339.41;;;16.01;100.00
65276;BME280;51875;49.994;14.052;2023-08-06T03:05:12;97338.88;;;15.95;100.00
65276;BME280;51875;49.994;14.052;2023-08-06T03:06:28;97341.34;;;15.84;100.00
65276;BME280;51875;49.994;14.052;2023-08-06T03:07:44;97345.19;;;16.06;100.00
65276;BME280;51875;49.994;14.052;2023-08-06T03:08:59;97335.06;;;16.13;100.00
65276;BME280;51875;49.994;14.052;2023-08-06T03:10:15;97335.81;;;16.02;100.00
65276;BME280;51875;49.994;14.052;2023-08-06T03:11:30;97337.06;;;15.96;100.00
65276;BME280;51875;49.994;14.052;2023-08-06T03:12:46;97333.59;;;15.95;100.00
65276;BME280;51875;49.994;14.052;2023-08-06T03:14:01;97335.22;;;15.84;100.00
65276;BME280;51875;49.994;14.052;2023-08-06T03:15:17;97339.00;;;16.07;100.00
65276;BME280;51875;49.994;14.052;2023-08-06T03:16:32;97336.22;;;16.08;100.00
65276;BME280;51875;49.994;14.052;2023-08-06T03:17:48;97334.53;;;16.07;100.00
65276;BME280;51875;49.994;14.052;2023-08-06T03:19:04;97331.25;;;16.04;100.00
65276;BME280;51875;49.994;14.052;2023-08-06T03:20:19;97331.69;;;16.10;100.00
65276;BME280;51875;49.994;14.052;2023-08-06T03:21:34;97331.91;;;15.94;100.00
65276;BME280;51875;49.994;14.052;2023-08-06T03:22:50;97320.25;;;15.84;100.00
65276;BME280;51875;49.994;14.052;2023-08-06T03:24:06;97326.13;;;15.75;100.00
65276;BME280;51875;49.994;14.052;2023-08-06T03:25:21;97319.47;;;15.69;100.00
65276;BME280;51875;49.994;14.052;2023-08-06T03:26:37;97318.81;;;15.93;100.00
65276;BME280;51875;49.994;14.052;2023-08-06T03:27:52;97315.28;;;15.79;100.00
65276;BME280;51875;49.994;14.052;2023-08-06T03:29:08;97314.66;;;15.89;100.00
65276;BME280;51875;49.994;14.052;2023-08-06T03:30:23;97314.69;;;16.02;100.00
65276;BME280;51875;49.994;14.052;2023-08-06T03:31:39;97310.88;;;16.06;100.00
65276;BME280;51875;49.994;14.052;2023-08-06T03:32:54;97312.03;;;15.89;100.00
65276;BME280;51875;49.994;14.052;2023-08-06T03:34:10;97307.28;;;15.94;100.00
65276;BME280;51875;49.994;14.052;2023-08-06T03:35:25;97308.06;;;16.09;100.00
65276;BME280;51875;49.994;14.052;2023-08-06T03:36:41;97307.63;;;16.15;100.00
65276;BME280;51875;49.994;14.052;2023-08-06T03:37:57;97311.22;;;16.14;100.00
65276;BME280;51875;49.994;14.052;2023-08-06T03:39:12;97298.44;;;16.21;100.00
65276;BME280;51875;49.994;14.052;2023-08-06T03:40:29;97302.13;;;16.18;100.00
65276;BME280;51875;49.994;14.052;2023-08-06T03:41:44;97299.41;;;16.07;100.00
65276;BME280;51875;49.994;14.052;2023-08-06T03:43:00;97305.09;;;16.14;100.00
65276;BME280;51875;49.994;14.052;2023-08-06T03:44:15;97297.06;;;16.28;100.00
65276;BME280;51875;49.994;14.052;2023-08-06T03:45:31;97293.47;;;16.16;100.00
65276;BME280;51875;49.994;14.052;2023-08-06T03:46:46;97298.53;;;16.06;100.00
65276;BME280;51875;49.994;14.052;2023-08-06T03:48:02;97295.69;;;16.09;100.00
65276;BME280;51875;49.994;14.052;2023-08-06T03:49:18;97294.13;;;16.07;100.00
65276;BME280;51875;49.994;14.052;2023-08-06T03:50:33;97291.56;;;16.18;100.00
65276;BME280;51875;49.994;14.052;2023-08-06T03:51:49;97291.88;;;16.27;100.00
65276;BME280;51875;49.994;14.052;2023-08-06T03:53:05;97286.81;;;16.23;100.00
65276;BME280;51875;49.994;14.052;2023-08-06T03:54:20;97292.38;;;16.32;100.00
65276;BME280;51875;49.994;14.052;2023-08-06T03:55:36;97292.09;;;16.23;100.00
65276;BME280;51875;49.994;14.052;2023-08-06T03:56:51;97286.63;;;16.14;100.00
65276;BME280;51875;49.994;14.052;2023-08-06T03:58:07;97284.59;;;16.17;100.00
65276;BME280;51875;49.994;14.052;2023-08-06T03:59:22;97288.72;;;16.08;100.00
65276;BME280;51875;49.994;14.052;2023-08-06T04:00:38;97294.22;;;16.05;100.00
65276;BME280;51875;49.994;14.052;2023-08-06T04:01:53;97288.41;;;16.13;100.00
65276;BME280;51875;49.994;14.052;2023-08-06T04:03:09;97289.56;;;16.09;100.00
65276;BME280;51875;49.994;14.052;2023-08-06T04:04:24;97283.00;;;16.28;100.00
65276;BME280;51875;49.994;14.052;2023-08-06T04:05:40;97287.47;;;16.01;100.00
65276;BME280;51875;49.994;14.052;2023-08-06T04:06:55;97277.31;;;15.95;100.00
65276;BME280;51875;49.994;14.052;2023-08-06T04:08:12;97279.84;;;15.97;100.00
65276;BME280;51875;49.994;14.052;2023-08-06T04:09:28;97282.91;;;16.03;100.00
65276;BME280;51875;49.994;14.052;2023-08-06T04:10:44;97280.78;;;16.08;100.00
65276;BME280;51875;49.994;14.052;2023-08-06T04:12:00;97269.41;;;16.08;100.00
65276;BME280;51875;49.994;14.052;2023-08-06T04:13:17;97274.69;;;16.08;100.00
65276;BME280;51875;49.994;14.052;2023-08-06T04:14:32;97270.88;;;16.12;100.00
65276;BME280;51875;49.994;14.052;2023-08-06T04:15:48;97274.56;;;16.22;100.00
65276;BME280;51875;49.994;14.052;2023-08-06T04:17:03;97273.16;;;16.30;100.00
65276;BME280;51875;49.994;14.052;2023-08-06T04:18:19;97272.75;;;16.23;100.00
65276;BME280;51875;49.994;14.052;2023-08-06T04:19:34;97266.75;;;16.21;100.00
65276;BME280;51875;49.994;14.052;2023-08-06T04:20:50;97268.31;;;16.23;100.00
65276;BME280;51875;49.994;14.052;2023-08-06T04:22:07;97265.56;;;16.38;100.00
65276;BME280;51875;49.994;14.052;2023-08-06T04:23:23;97264.06;;;16.34;100.00
65276;BME280;51875;49.994;14.052;2023-08-06T04:24:39;97256.03;;;16.35;100.00
65276;BME280;51875;49.994;14.052;2023-08-06T04:25:58;97272.44;;;16.28;100.00
65276;BME280;51875;49.994;14.052;2023-08-06T04:27:15;97266.41;;;16.26;100.00
65276;BME280;51875;49.994;14.052;2023-08-06T04:28:32;97266.28;;;16.27;100.00
65276;BME280;51875;49.994;14.052;2023-08-06T04:29:48;97264.41;;;16.16;100.00
65276;BME280;51875;49.994;14.052;2023-08-06T04:31:03;97265.78;;;16.22;100.00
65276;BME280;51875;49.994;14.052;2023-08-06T04:32:19;97268.41;;;16.22;100.00
65276;BME280;51875;49.994;14.052;2023-08-06T04:33:34;97271.06;;;16.22;100.00
65276;BME280;51875;49.994;14.052;2023-08-06T04:34:50;97272.97;;;16.20;100.00
65276;BME280;51875;49.994;14.052;2023-08-06T04:36:06;97266.63;;;16.22;100.00
65276;BME280;51875;49.994;14.052;2023-08-06T04:37:22;97270.00;;;16.12;100.00
65276;BME280;51875;49.994;14.052;2023-08-06T04:38:37;97266.53;;;16.11;100.00
65276;BME280;51875;49.994;14.052;2023-08-06T04:39:53;97265.38;;;16.15;100.00
65276;BME280;51875;49.994;14.052;2023-08-06T04:41:09;97259.44;;;16.24;100.00
65276;BME280;51875;49.994;14.052;2023-08-06T04:42:24;97259.00;;;16.31;100.00
65276;BME280;51875;49.994;14.052;2023-08-06T04:43:40;97264.97;;;16.21;100.00
65276;BME280;51875;49.994;14.052;2023-08-06T04:44:56;97257.03;;;16.21;100.00
65276;BME280;51875;49.994;14.052;2023-08-06T04:46:11;97253.53;;;16.21;100.00
65276;BME280;51875;49.994;14.052;2023-08-06T04:47:27;97255.44;;;16.19;100.00
65276;BME280;51875;49.994;14.052;2023-08-06T04:48:42;97253.75;;;16.18;100.00
65276;BME280;51875;49.994;14.052;2023-08-06T04:49:58;97256.72;;;16.13;100.00
65276;BME280;51875;49.994;14.052;2023-08-06T04:51:14;97252.25;;;16.27;100.00
65276;BME280;51875;49.994;14.052;2023-08-06T04:52:29;97250.38;;;16.16;100.00
65276;BME280;51875;49.994;14.052;2023-08-06T04:53:47;97247.50;;;16.06;100.00
65276;BME280;51875;49.994;14.052;2023-08-06T04:55:03;97244.03;;;16.05;100.00
65276;BME280;51875;49.994;14.052;2023-08-06T04:56:21;97248.47;;;16.05;100.00
65276;BME280;51875;49.994;14.052;2023-08-06T04:57:36;97248.22;;;16.34;100.00
65276;BME280;51875;49.994;14.052;2023-08-06T04:58:52;97240.38;;;16.45;100.00
65276;BME280;51875;49.994;14.052;2023-08-06T05:00:08;97242.28;;;16.43;100.00
65276;BME280;51875;49.994;14.052;2023-08-06T05:01:23;97243.34;;;16.41;100.00
65276;BME280;51875;49.994;14.052;2023-08-06T05:02:39;97244.44;;;16.38;100.00
65276;BME280;51875;49.994;14.052;2023-08-06T05:03:54;97246.63;;;16.44;100.00
65276;BME280;51875;49.994;14.052;2023-08-06T05:05:10;97243.97;;;16.44;100.00
65276;BME280;51875;49.994;14.052;2023-08-06T05:06:26;97240.84;;;16.39;100.00
65276;BME280;51875;49.994;14.052;2023-08-06T05:07:41;97241.69;;;16.27;100.00
65276;BME280;51875;49.994;14.052;2023-08-06T05:08:57;97247.63;;;15.91;100.00
65276;BME280;51875;49.994;14.052;2023-08-06T05:10:12;97246.91;;;16.02;100.00
65276;BME280;51875;49.994;14.052;2023-08-06T05:11:28;97248.06;;;16.11;100.00
65276;BME280;51875;49.994;14.052;2023-08-06T05:12:43;97244.03;;;16.05;100.00
65276;BME280;51875;49.994;14.052;2023-08-06T05:13:59;97239.59;;;16.06;100.00
65276;BME280;51875;49.994;14.052;2023-08-06T05:15:14;97242.69;;;16.00;100.00
65276;BME280;51875;49.994;14.052;2023-08-06T05:16:30;97239.59;;;16.06;100.00
65276;BME280;51875;49.994;14.052;2023-08-06T05:17:45;97238.75;;;16.18;100.00
65276;BME280;51875;49.994;14.052;2023-08-06T05:19:01;97242.97;;;16.21;100.00
65276;BME280;51875;49.994;14.052;2023-08-06T05:20:17;97238.97;;;16.15;100.00
65276;BME280;51875;49.994;14.052;2023-08-06T05:21:32;97243.59;;;16.24;100.00
65276;BME280;51875;49.994;14.052;2023-08-06T05:22:48;97237.19;;;16.03;100.00
65276;BME280;51875;49.994;14.052;2023-08-06T05:24:03;97243.38;;;16.28;100.00
65276;BME280;51875;49.994;14.052;2023-08-06T05:25:19;97243.84;;;16.21;100.00
65276;BME280;51875;49.994;14.052;2023-08-06T05:26:35;97242.25;;;15.93;100.00
65276;BME280;51875;49.994;14.052;2023-08-06T05:27:50;97235.28;;;16.18;100.00
65276;BME280;51875;49.994;14.052;2023-08-06T05:29:06;97232.53;;;16.06;100.00
65276;BME280;51875;49.994;14.052;2023-08-06T05:30:21;97230.84;;;16.05;100.00
65276;BME280;51875;49.994;14.052;2023-08-06T05:31:37;97223.88;;;15.91;100.00
65276;BME280;51875;49.994;14.052;2023-08-06T05:32:52;97228.41;;;16.15;100.00
65276;BME280;51875;49.994;14.052;2023-08-06T05:34:08;97230.81;;;16.31;100.00
65276;BME280;51875;49.994;14.052;2023-08-06T05:35:24;97228.72;;;16.23;100.00
65276;BME280;51875;49.994;14.052;2023-08-06T05:36:39;97226.31;;;16.07;100.00
65276;BME280;51875;49.994;14.052;2023-08-06T05:37:55;97223.88;;;15.78;100.00
65276;BME280;51875;49.994;14.052;2023-08-06T05:39:10;97222.63;;;16.10;100.00
65276;BME280;51875;49.994;14.052;2023-08-06T05:40:26;97224.84;;;16.03;100.00
65276;BME280;51875;49.994;14.052;2023-08-06T05:41:41;97227.34;;;16.18;100.00
65276;BME280;51875;49.994;14.052;2023-08-06T05:42:57;97225.81;;;16.40;100.00
65276;BME280;51875;49.994;14.052;2023-08-06T05:44:12;97220.47;;;16.28;100.00
65276;BME280;51875;49.994;14.052;2023-08-06T05:45:28;97215.84;;;16.19;100.00
65276;BME280;51875;49.994;14.052;2023-08-06T05:46:43;97215.88;;;16.43;100.00
65276;BME280;51875;49.994;14.052;2023-08-06T05:47:59;97222.13;;;16.42;100.00
65276;BME280;51875;49.994;14.052;2023-08-06T05:49:15;97212.00;;;16.36;100.00
65276;BME280;51875;49.994;14.052;2023-08-06T05:50:30;97208.91;;;16.42;100.00
65276;BME280;51875;49.994;14.052;2023-08-06T05:51:46;97213.13;;;16.45;100.00
65276;BME280;51875;49.994;14.052;2023-08-06T05:53:01;97213.88;;;16.47;100.00
65276;BME280;51875;49.994;14.052;2023-08-06T05:54:17;97214.75;;;16.59;100.00
65276;BME280;51875;49.994;14.052;2023-08-06T05:55:33;97213.81;;;16.60;100.00
65276;BME280;51875;49.994;14.052;2023-08-06T05:56:49;97208.31;;;16.63;100.00
65276;BME280;51875;49.994;14.052;2023-08-06T05:58:04;97209.44;;;16.72;100.00
65276;BME280;51875;49.994;14.052;2023-08-06T05:59:20;97209.78;;;16.67;100.00
65276;BME280;51875;49.994;14.052;2023-08-06T06:00:35;97205.88;;;16.60;100.00
65276;BME280;51875;49.994;14.052;2023-08-06T06:01:51;97204.72;;;16.64;100.00
65276;BME280;51875;49.994;14.052;2023-08-06T06:03:06;97203.06;;;16.74;100.00
65276;BME280;51875;49.994;14.052;2023-08-06T06:04:22;97206.19;;;16.68;100.00
65276;BME280;51875;49.994;14.052;2023-08-06T06:05:38;97210.97;;;16.63;100.00
65276;BME280;51875;49.994;14.052;2023-08-06T06:06:54;97207.88;;;16.69;100.00
65276;BME280;51875;49.994;14.052;2023-08-06T06:08:09;97209.16;;;16.63;100.00
65276;BME280;51875;49.994;14.052;2023-08-06T06:09:25;97213.06;;;16.71;100.00
65276;BME280;51875;49.994;14.052;2023-08-06T06:10:41;97208.41;;;16.86;100.00
65276;BME280;51875;49.994;14.052;2023-08-06T06:11:56;97213.44;;;16.77;100.00
65276;BME280;51875;49.994;14.052;2023-08-06T06:13:12;97212.50;;;16.78;100.00
65276;BME280;51875;49.994;14.052;2023-08-06T06:14:28;97218.66;;;16.90;100.00
65276;BME280;51875;49.994;14.052;2023-08-06T06:15:43;97216.88;;;16.91;100.00
65276;BME280;51875;49.994;14.052;2023-08-06T06:16:59;97211.19;;;16.84;100.00
65276;BME280;51875;49.994;14.052;2023-08-06T06:18:15;97217.78;;;17.03;100.00
65276;BME280;51875;49.994;14.052;2023-08-06T06:19:31;97209.38;;;16.85;100.00
65276;BME280;51875;49.994;14.052;2023-08-06T06:20:47;97211.47;;;16.68;100.00
65276;BME280;51875;49.994;14.052;2023-08-06T06:22:02;97206.59;;;16.62;100.00
65276;BME280;51875;49.994;14.052;2023-08-06T06:23:18;97205.84;;;16.73;100.00
65276;BME280;51875;49.994;14.052;2023-08-06T06:24:33;97208.59;;;16.71;100.00
65276;BME280;51875;49.994;14.052;2023-08-06T06:25:50;97205.00;;;16.72;100.00
65276;BME280;51875;49.994;14.052;2023-08-06T06:27:08;97207.84;;;16.45;100.00
65276;BME280;51875;49.994;14.052;2023-08-06T06:28:23;97207.56;;;16.61;100.00
65276;BME280;51875;49.994;14.052;2023-08-06T06:29:39;97215.03;;;16.43;100.00
65276;BME280;51875;49.994;14.052;2023-08-06T06:31:00;97209.22;;;16.37;100.00
65276;BME280;51875;49.994;14.052;2023-08-06T06:32:16;97208.84;;;16.55;100.00
65276;BME280;51875;49.994;14.052;2023-08-06T06:33:31;97211.63;;;16.54;100.00
65276;BME280;51875;49.994;14.052;2023-08-06T06:34:47;97206.16;;;16.44;100.00
65276;BME280;51875;49.994;14.052;2023-08-06T06:36:03;97207.75;;;16.71;100.00
65276;BME280;51875;49.994;14.052;2023-08-06T06:37:19;97209.59;;;16.57;100.00
65276;BME280;51875;49.994;14.052;2023-08-06T06:38:34;97206.34;;;16.54;100.00